Nearby METAR Reports

 

KGLD - Renner Field Goodland, Kansas, USA
Distance from station: W 39mi, 59km
Updated: Fri, 12-Apr-2024 6:53am CDT
Clear
Clear
 Wind from ESE
Wind: ESE 8 mph, 13 km/h
Temperature: 30°F, -1°C
Wind Chill: 22°F, -6°C
Dew Point: 19°F, -7°C
Humidity: 64%
Barometer: 30.11 inHg, 1019.6 hPa
Clouds: Clear
Visibility: 10 miles, 16 km
2024/04/12 11:53 KGLD 121153Z AUTO 11007KT 10SM CLR M01/M07 A3011 RMK AO2 SLP190 T10111067 10050 21011 53001
KCBK - Colby Municipal Airport Colby, Kansas, USA
Distance from station: N 2mi, 3km
Updated: Fri, 12-Apr-2024 7:15am CDT
Clear
Clear
 Wind from ESE
Wind: ESE 9 mph, 15 km/h
Temperature: 32°F, 0°C
Wind Chill: 24°F, -4°C
Dew Point: 16°F, -9°C
Humidity: 51%
Barometer: 30.16 inHg, 1021.3 hPa
Clouds: Clear
Visibility: 10 miles, 16 km
2024/04/12 12:15 KCBK 121215Z AUTO 11008KT 10SM CLR 00/M09 A3016 RMK AO2 T00031090
 
KMCK - Ben Nelson Regional Airport McCook, Nebraska, USA
Distance from station: NW 61mi, 98km
Updated: Fri, 12-Apr-2024 6:53am CDT
Clear
Clear
 Wind from calm
Wind: Calm
Temperature: 28°F, -2°C
Dew Point: 19°F, -7°C
Humidity: 69%
Barometer: 30.15 inHg, 1021 hPa
Clouds: Clear
Visibility: 10 miles, 16 km
2024/04/12 11:53 KMCK 121153Z AUTO 00000KT 10SM CLR M02/M07 A3015 RMK AO2 SLP214 T10171072 10061 21033 50005 $
KHLC - Hill City Municipal Airport Hill City, Kansas, USA
Distance from station: E 65mi, 104km
Updated: Fri, 12-Apr-2024 6:53am CDT
Clear
Clear
 Wind from calm
Wind: Calm
Temperature: 30°F, -1°C
Dew Point: 19°F, -7°C
Humidity: 64%
Barometer: 30.18 inHg, 1022 hPa
Clouds: Clear
Visibility: 10 miles, 16 km
2024/04/12 11:53 KHLC 121153Z AUTO 00000KT 10SM CLR M01/M07 A3018 RMK AO2 SLP222 T10111072 10039 21022 51010
 
KHYS - Hays Regional Airport Hays, Kansas, USA
Distance from station: E 103mi, 166km
Updated: Fri, 12-Apr-2024 6:56am CDT
Clear
Clear
 Wind from calm
Wind: Calm
Temperature: 34°F, 1°C
Dew Point: 19°F, -7°C
Humidity: 56%
Barometer: 30.18 inHg, 1022 hPa
Clouds: Clear
Visibility: 10 miles, 16 km
2024/04/12 11:56 KHYS 121156Z AUTO 00000KT 10SM CLR 01/M07 A3018 RMK AO2 SLP223 T00111072 10044 21017 53011 FZRANO
KITR - Kit Carson County Airport Burlington, Colorado, USA
Distance from station: W 105mi, 34km
Updated: Fri, 12-Apr-2024 6:53am CDT
Clear
Clear
 Wind from SSW
Wind: SSW 7 mph, 11 km/h
Temperature: 32°F, 0°C
Wind Chill: 25°F, -4°C
Dew Point: 25°F, -4°C
Humidity: 75%
Barometer: 30.10 inHg, 1019.3 hPa
Clouds: Clear
Visibility: 10 miles, 16 km
2024/04/12 11:53 KITR 121153Z AUTO 20006KT 10SM CLR 00/M04 A3010 RMK AO2 SLP180 7//// T00001039 10050 20000 50001
 
KSFO - Limon Municipal Airport, Colorado, USA
Distance from station: W 142mi, 227km
Updated: Fri, 12-Apr-2024 6:56am CDT
Mostly cloudy
Mostly cloudy
 Wind from W
Wind: W 20 mph, 31 km/h, Gust: 25 mph, 41 km/h
Temperature: 52°F, 11°C
Dew Point: 46°F, 8°C
Humidity: 82%
Barometer: 29.75 inHg, 1007.5 hPa
Clouds: Mostly cloudy
Visibility: 10 miles, 16 km
Cloud details: Mostly cloudy 1100 ft
2024/04/12 11:56 KSFO 121156Z 28017G22KT 10SM BKN011 11/08 A2975 RMK AO2 SLP072 T01060078 10122 20106 56013
KBKF - Buckley Air Force Base Aurora, Colorado, USA
Distance from station: W 182mi, 293km
Updated: Fri, 12-Apr-2024 6:58am CDT
Clear
Clear
 Wind from S
Wind: S 10 mph, 17 km/h
Temperature: 43°F, 6°C
Wind Chill: 37°F, 3°C
Dew Point: 19°F, -7°C
Humidity: 39%
Barometer: 30.07 inHg, 1018.3 hPa
Clouds: Clear
Visibility: 10 miles, 16 km
2024/04/12 11:58 KBKF 121158Z 18009KT 10SM CLR 06/M07 A3007 RMK AO2A SLP144 T00641066 10089 20062 53001